createdAt,value
2019-03-27T00:02:20.139Z,29.80
2019-03-27T00:04:48.368Z,24.25
2019-03-27T00:07:16.629Z,27.87
2019-03-27T00:09:44.869Z,23.90
2019-03-27T00:12:13.116Z,30.08
2019-03-27T00:14:41.370Z,23.57
2019-03-27T00:17:09.601Z,27.75
2019-03-27T00:19:37.849Z,29.02
2019-03-27T00:22:06.096Z,28.83
2019-03-27T00:24:34.334Z,31.73
2019-03-27T00:27:02.594Z,24.43
2019-03-27T00:29:30.854Z,25.77
2019-03-27T00:31:59.097Z,28.90
2019-03-27T00:34:27.353Z,27.40
2019-03-27T00:36:55.590Z,26.40
2019-03-27T00:39:23.830Z,30.70
2019-03-27T00:41:52.092Z,30.70
2019-03-27T00:44:20.327Z,29.63
2019-03-27T00:46:48.557Z,24.90
2019-03-27T00:49:16.808Z,33.50
2019-03-27T00:51:45.062Z,23.67
2019-03-27T00:54:13.284Z,24.12
2019-03-27T00:56:41.546Z,27.07
2019-03-27T00:59:09.762Z,32.90
2019-03-27T01:01:38.012Z,26.37
2019-03-27T01:04:06.249Z,28.35
2019-03-27T01:06:34.510Z,28.87
2019-03-27T01:09:02.763Z,29.67
2019-03-27T01:11:30.994Z,28.73
2019-03-27T01:13:59.245Z,29.02
2019-03-27T01:16:27.462Z,34.33
2019-03-27T01:18:55.722Z,32.00
2019-03-27T01:21:23.958Z,32.58
2019-03-27T01:23:52.306Z,29.87
2019-03-27T01:26:20.531Z,31.17
2019-03-27T01:28:48.768Z,31.57
2019-03-27T01:31:17.012Z,23.60
2019-03-27T01:33:45.240Z,28.62
2019-03-27T01:36:13.493Z,25.82
2019-03-27T01:38:41.711Z,27.95
2019-03-27T01:41:09.974Z,32.73
2019-03-27T01:43:38.210Z,27.58
2019-03-27T01:46:06.472Z,27.65
2019-03-27T01:48:34.694Z,27.02
2019-03-27T01:51:03.010Z,33.63
2019-03-27T01:53:31.266Z,29.15
2019-03-27T01:55:59.514Z,28.12
2019-03-27T01:58:27.741Z,31.57
2019-03-27T02:00:55.988Z,34.70
2019-03-27T02:03:24.228Z,30.68
2019-03-27T02:05:52.532Z,24.85
2019-03-27T02:08:20.790Z,30.65
2019-03-27T02:10:49.033Z,25.72
2019-03-27T02:13:17.270Z,29.50
2019-03-27T02:15:45.494Z,34.05
2019-03-27T02:18:13.749Z,31.33
2019-03-27T02:20:41.971Z,25.15
2019-03-27T02:23:10.234Z,31.82
2019-03-27T02:25:38.470Z,30.95
2019-03-27T02:28:06.719Z,27.60
2019-03-27T02:30:34.955Z,29.50
2019-03-27T02:33:03.235Z,35.13
2019-03-27T02:35:31.568Z,32.75
2019-03-27T02:37:59.846Z,27.67
2019-03-27T02:40:28.090Z,30.40
2019-03-27T02:42:56.366Z,29.48
2019-03-27T02:45:24.625Z,32.45
2019-03-27T02:47:52.938Z,33.05
2019-03-27T02:50:21.193Z,24.07
2019-03-27T02:52:49.422Z,29.25
2019-03-27T02:55:17.654Z,28.35
2019-03-27T02:57:45.924Z,27.20
2019-03-27T03:00:14.181Z,28.70
2019-03-27T03:02:42.439Z,31.62
2019-03-27T03:05:10.693Z,26.82
2019-03-27T03:07:38.930Z,24.10
2019-03-27T03:10:08.121Z,33.10
2019-03-27T03:12:36.339Z,24.05
2019-03-27T03:15:05.270Z,27.98
2019-03-27T03:17:33.491Z,28.10
2019-03-27T03:20:01.734Z,23.10
2019-03-27T03:22:29.985Z,24.43
2019-03-27T03:24:58.221Z,29.07
2019-03-27T03:27:26.478Z,26.42
2019-03-27T03:29:54.731Z,28.50
2019-03-27T03:32:22.995Z,28.12
2019-03-27T03:34:51.235Z,26.50
2019-03-27T03:37:19.492Z,24.92
2019-03-27T03:39:47.718Z,26.33
2019-03-27T03:42:15.971Z,32.13
2019-03-27T03:44:44.231Z,25.05
2019-03-27T03:47:12.497Z,24.23
2019-03-27T03:49:40.745Z,24.25
2019-03-27T03:52:08.989Z,25.35
2019-03-27T03:54:37.234Z,24.95
2019-03-27T03:57:05.600Z,28.92
2019-03-27T03:59:33.997Z,29.48
2019-03-27T04:02:03.197Z,30.72
2019-03-27T04:04:31.438Z,27.40
2019-03-27T04:06:59.664Z,25.55
2019-03-27T04:09:27.910Z,22.50
2019-03-27T04:11:56.157Z,25.80
2019-03-27T04:14:24.393Z,27.77
2019-03-27T04:16:52.640Z,28.98
2019-03-27T04:19:20.875Z,25.80
2019-03-27T04:21:49.139Z,29.50
2019-03-27T04:24:17.371Z,28.95
2019-03-27T04:26:45.607Z,24.43
2019-03-27T04:29:13.840Z,28.38
2019-03-27T04:31:42.089Z,28.05
2019-03-27T04:34:10.324Z,22.45
2019-03-27T04:36:38.577Z,33.58
2019-03-27T04:39:06.795Z,28.05
2019-03-27T04:41:37.979Z,27.15
2019-03-27T04:44:06.215Z,29.63
2019-03-27T04:46:34.452Z,28.62
2019-03-27T04:49:07.348Z,28.00
2019-03-27T04:51:32.749Z,29.12
2019-03-27T04:54:00.972Z,28.02
2019-03-27T04:56:29.229Z,27.65
2019-03-27T04:58:57.488Z,25.52
2019-03-27T05:01:25.734Z,32.93
2019-03-27T05:03:54.350Z,31.70
2019-03-27T05:06:22.584Z,29.82
2019-03-27T05:08:50.813Z,24.67
2019-03-27T05:11:19.070Z,30.27
2019-03-27T05:13:47.324Z,30.65
2019-03-27T05:16:15.551Z,31.85
2019-03-27T05:18:43.796Z,31.68
2019-03-27T05:21:12.017Z,26.07
2019-03-27T05:23:40.284Z,27.05
2019-03-27T05:26:08.517Z,34.45
2019-03-27T05:28:36.771Z,30.25
2019-03-27T05:31:04.991Z,33.13
2019-03-27T05:33:33.247Z,30.23
2019-03-27T05:36:01.470Z,34.23
2019-03-27T05:38:29.721Z,32.13
2019-03-27T05:40:57.973Z,31.15
2019-03-27T05:43:26.192Z,32.65
2019-03-27T05:45:54.442Z,30.30
2019-03-27T05:48:22.678Z,33.18
2019-03-27T05:50:50.956Z,31.93
2019-03-27T05:53:19.183Z,36.63
2019-03-27T05:55:47.450Z,30.68
2019-03-27T05:58:15.738Z,34.35
2019-03-27T06:00:43.974Z,34.03
2019-03-27T06:03:12.220Z,44.45
2019-03-27T06:05:40.458Z,44.38
2019-03-27T06:08:08.711Z,35.08
2019-03-27T06:10:36.947Z,31.97
2019-03-27T06:13:05.183Z,42.67
2019-03-27T06:15:33.412Z,34.75
2019-03-27T06:18:12.512Z,32.93
2019-03-27T06:20:31.614Z,33.35
2019-03-27T06:22:59.848Z,30.75
2019-03-27T06:25:28.100Z,34.95
2019-03-27T06:27:56.328Z,39.73
2019-03-27T06:30:24.548Z,35.50
2019-03-27T06:32:52.796Z,47.65
2019-03-27T06:35:21.037Z,42.70
2019-03-27T06:37:49.258Z,39.50
2019-03-27T06:40:17.516Z,41.80
2019-03-27T06:42:45.753Z,33.73
2019-03-27T06:45:13.984Z,38.20
2019-03-27T06:47:42.234Z,39.30
2019-03-27T06:50:10.498Z,34.18
2019-03-27T06:52:38.730Z,36.90
2019-03-27T06:55:08.037Z,39.38
2019-03-27T06:57:36.298Z,43.63
2019-03-27T07:00:28.293Z,38.90
2019-03-27T07:02:56.598Z,40.80
2019-03-27T07:05:24.851Z,44.42
2019-03-27T07:07:53.107Z,39.18
2019-03-27T07:10:21.358Z,46.00
2019-03-27T07:12:49.596Z,61.60
2019-03-27T07:15:17.848Z,46.13
2019-03-27T07:17:46.091Z,44.38
2019-03-27T07:20:14.351Z,44.42
2019-03-27T07:22:42.585Z,45.33
2019-03-27T07:25:10.840Z,40.92
2019-03-27T07:27:39.069Z,42.33
2019-03-27T07:30:07.326Z,38.88
2019-03-27T07:32:35.556Z,42.03
2019-03-27T07:35:04.943Z,48.33
2019-03-27T07:37:33.176Z,48.75
2019-03-27T07:40:01.441Z,46.75
2019-03-27T07:42:30.004Z,48.55
2019-03-27T07:44:58.250Z,40.35
2019-03-27T07:47:26.480Z,38.17
2019-03-27T07:49:54.732Z,42.83
2019-03-27T07:52:22.962Z,45.95
2019-03-27T07:54:51.186Z,42.20
2019-03-27T07:57:19.445Z,40.95
2019-03-27T07:59:47.675Z,38.88
2019-03-27T08:02:15.935Z,41.30
2019-03-27T08:04:44.248Z,40.63
2019-03-27T08:07:25.939Z,45.55
2019-03-27T08:09:42.460Z,44.08
2019-03-27T08:12:10.701Z,39.95
2019-03-27T08:14:38.953Z,42.83
2019-03-27T08:17:07.167Z,46.98
2019-03-27T08:19:35.445Z,43.95
2019-03-27T08:22:03.697Z,46.25
2019-03-27T08:24:31.945Z,43.87
2019-03-27T08:27:00.186Z,37.58
2019-03-27T08:29:28.521Z,32.55
2019-03-27T08:31:56.789Z,33.63
2019-03-27T08:34:25.007Z,30.05
2019-03-27T08:36:53.259Z,35.40
2019-03-27T08:39:21.531Z,30.92
2019-03-27T08:41:49.782Z,28.42
2019-03-27T08:44:18.102Z,32.93
2019-03-27T08:46:46.380Z,30.20
2019-03-27T08:49:21.696Z,30.52
2019-03-27T08:51:44.595Z,35.28
2019-03-27T08:54:12.838Z,30.32
2019-03-27T08:56:41.109Z,33.23
2019-03-27T08:59:09.368Z,29.37
2019-03-27T09:01:37.605Z,30.95
2019-03-27T09:04:05.857Z,33.08
2019-03-27T09:06:34.367Z,33.40
2019-03-27T09:09:03.617Z,26.55
2019-03-27T09:11:31.860Z,29.18
2019-03-27T09:14:00.092Z,30.05
2019-03-27T09:16:28.344Z,27.22
2019-03-27T09:18:56.571Z,23.15
2019-03-27T09:21:24.829Z,22.87
2019-03-27T09:23:53.078Z,28.67
2019-03-27T09:26:21.316Z,25.62
2019-03-27T09:28:49.564Z,27.30
2019-03-27T09:31:17.787Z,26.35
2019-03-27T09:33:46.030Z,22.73
2019-03-27T09:36:14.270Z,27.93
2019-03-27T09:38:42.521Z,25.37
2019-03-27T09:41:10.779Z,23.85
2019-03-27T09:43:38.998Z,27.20
2019-03-27T09:46:07.228Z,23.80
2019-03-27T09:48:35.511Z,23.07
2019-03-27T09:51:03.751Z,19.98
2019-03-27T09:53:31.996Z,23.65
2019-03-27T09:56:00.244Z,24.98
2019-03-27T09:58:28.466Z,23.10
2019-03-27T10:00:56.978Z,21.05
2019-03-27T10:03:25.196Z,20.80
2019-03-27T10:05:53.465Z,24.00
2019-03-27T10:08:21.735Z,22.45
2019-03-27T10:10:50.441Z,21.75
2019-03-27T10:13:19.212Z,19.65
2019-03-27T10:16:06.923Z,23.02
2019-03-27T10:18:35.166Z,21.40
2019-03-27T10:21:03.418Z,29.87
2019-03-27T10:23:31.668Z,24.10
2019-03-27T10:25:59.898Z,23.50
2019-03-27T10:28:28.139Z,22.77
2019-03-27T10:30:56.403Z,18.05
2019-03-27T10:33:24.666Z,22.87
2019-03-27T10:35:52.906Z,22.80
2019-03-27T10:38:21.142Z,17.75
2019-03-27T10:40:49.386Z,20.55
2019-03-27T10:43:17.633Z,23.00
2019-03-27T10:45:45.872Z,19.37
2019-03-27T10:48:14.127Z,20.37
2019-03-27T10:50:42.349Z,17.55
2019-03-27T10:53:10.606Z,22.67
2019-03-27T10:55:38.871Z,15.25
2019-03-27T10:58:07.104Z,19.12
2019-03-27T11:00:35.348Z,19.92
2019-03-27T11:03:03.584Z,17.50
2019-03-27T11:05:31.821Z,13.78
2019-03-27T11:08:00.070Z,20.92
2019-03-27T11:10:28.283Z,16.48
2019-03-27T11:12:56.546Z,16.73
2019-03-27T11:15:24.787Z,12.70
2019-03-27T11:17:53.036Z,14.25
2019-03-27T11:20:30.959Z,13.05
2019-03-27T11:22:51.627Z,14.60
2019-03-27T11:25:19.856Z,14.90
2019-03-27T11:27:48.082Z,9.70
2019-03-27T11:30:16.323Z,8.35
2019-03-27T11:32:44.588Z,14.85
2019-03-27T11:35:12.826Z,10.13
2019-03-27T11:37:41.097Z,12.25
2019-03-27T11:40:09.330Z,15.13
2019-03-27T11:42:37.784Z,12.10
2019-03-27T11:45:07.674Z,11.75
2019-03-27T11:47:35.923Z,11.25
2019-03-27T11:50:08.352Z,13.25
2019-03-27T11:52:36.589Z,12.28
2019-03-27T11:55:05.592Z,12.43
2019-03-27T11:57:33.832Z,11.53
2019-03-27T12:00:02.098Z,9.25
2019-03-27T12:02:30.359Z,10.68
2019-03-27T12:04:58.607Z,9.43
2019-03-27T12:07:27.193Z,9.45
2019-03-27T12:09:55.445Z,8.20
2019-03-27T12:12:23.667Z,16.15
2019-03-27T12:14:51.911Z,7.33
2019-03-27T12:17:20.146Z,8.95
2019-03-27T12:19:48.383Z,15.70
2019-03-27T12:22:16.630Z,11.00
2019-03-27T12:24:44.879Z,9.90
2019-03-27T12:27:13.123Z,10.98
2019-03-27T12:29:41.373Z,10.78
2019-03-27T12:32:09.589Z,9.95
2019-03-27T12:34:37.856Z,11.08
2019-03-27T12:37:06.070Z,10.35
2019-03-27T12:39:34.319Z,9.13
2019-03-27T12:42:02.563Z,9.03
2019-03-27T12:44:30.889Z,12.45
2019-03-27T12:46:59.151Z,11.38
2019-03-27T12:49:27.406Z,12.18
2019-03-27T12:51:55.655Z,11.70
2019-03-27T12:54:23.898Z,10.65
2019-03-27T12:56:52.123Z,14.15
2019-03-27T12:59:20.366Z,11.65
2019-03-27T13:01:48.603Z,7.53
2019-03-27T13:04:16.841Z,9.48
2019-03-27T13:06:45.069Z,6.85
2019-03-27T13:09:13.337Z,11.43
2019-03-27T13:11:41.574Z,12.65
2019-03-27T13:14:09.792Z,5.85
2019-03-27T13:16:38.037Z,7.75
2019-03-27T13:19:06.284Z,6.30
2019-03-27T13:21:34.520Z,6.67
2019-03-27T13:24:02.768Z,9.28
2019-03-27T13:26:30.994Z,9.70
2019-03-27T13:28:59.240Z,6.75
2019-03-27T13:31:27.469Z,7.35
2019-03-27T13:33:55.697Z,7.50
2019-03-27T13:36:23.961Z,11.95
2019-03-27T13:38:52.204Z,12.28
2019-03-27T13:41:20.443Z,9.50
2019-03-27T13:43:48.689Z,9.30
2019-03-27T13:46:16.911Z,10.10
2019-03-27T13:48:45.174Z,8.90
2019-03-27T13:51:13.397Z,6.60
2019-03-27T13:53:41.651Z,10.50
2019-03-27T13:56:09.900Z,10.65
2019-03-27T13:58:38.129Z,7.47
2019-03-27T14:01:08.906Z,7.22
2019-03-27T14:03:36.356Z,6.95
2019-03-27T14:06:04.581Z,7.72
2019-03-27T14:08:32.816Z,10.05
2019-03-27T14:11:01.069Z,8.35
2019-03-27T14:13:29.309Z,7.78
2019-03-27T14:15:57.550Z,7.70
2019-03-27T14:18:25.786Z,9.83
2019-03-27T14:20:54.008Z,5.17
2019-03-27T14:23:22.261Z,9.88
2019-03-27T14:25:50.509Z,10.98
2019-03-27T14:28:18.732Z,5.62
2019-03-27T14:30:49.300Z,5.67
2019-03-27T14:33:17.612Z,5.35
2019-03-27T14:35:45.855Z,5.92
2019-03-27T14:38:14.106Z,5.70
2019-03-27T14:40:42.329Z,5.53
2019-03-27T14:43:10.591Z,4.70
2019-03-27T14:45:38.838Z,5.92
2019-03-27T14:48:07.068Z,5.70
2019-03-27T14:50:35.322Z,6.58
2019-03-27T14:53:03.547Z,7.47
2019-03-27T14:55:31.793Z,7.78
2019-03-27T14:58:00.048Z,6.90
2019-03-27T15:00:28.270Z,7.58
2019-03-27T15:02:56.494Z,7.17
2019-03-27T15:05:24.761Z,7.70
2019-03-27T15:07:53.007Z,7.87
2019-03-27T15:10:21.260Z,8.68
2019-03-27T15:12:49.489Z,5.87
2019-03-27T15:15:17.900Z,5.47
2019-03-27T15:17:46.124Z,4.85
2019-03-27T15:20:14.358Z,8.25
2019-03-27T15:22:42.624Z,7.85
2019-03-27T15:25:10.843Z,9.40
2019-03-27T15:27:39.111Z,9.33
2019-03-27T15:30:12.564Z,6.53
2019-03-27T15:32:39.764Z,5.42
2019-03-27T15:35:08.020Z,5.08
2019-03-27T15:37:36.249Z,4.97
2019-03-27T15:40:05.439Z,6.40
2019-03-27T15:42:33.721Z,8.38
2019-03-27T15:45:01.972Z,7.20
2019-03-27T15:47:30.208Z,8.48
2019-03-27T15:49:58.439Z,5.33
2019-03-27T15:52:36.367Z,5.42
2019-03-27T15:54:56.652Z,12.58
2019-03-27T15:57:24.872Z,8.30
2019-03-27T15:59:53.122Z,5.70
2019-03-27T16:02:21.348Z,8.33
2019-03-27T16:04:49.597Z,6.42
2019-03-27T16:07:17.839Z,5.25
2019-03-27T16:09:46.067Z,5.10
2019-03-27T16:12:14.322Z,3.83
2019-03-27T16:14:42.577Z,5.17
2019-03-27T16:17:13.677Z,6.60
2019-03-27T16:19:40.755Z,6.15
2019-03-27T16:22:08.977Z,3.83
2019-03-27T16:24:37.240Z,5.50
2019-03-27T16:27:05.492Z,4.78
2019-03-27T16:29:33.716Z,6.28
2019-03-27T16:32:01.967Z,4.97
2019-03-27T16:34:30.183Z,4.95
2019-03-27T16:36:58.422Z,6.53
2019-03-27T16:39:26.727Z,6.83
2019-03-27T16:41:54.981Z,4.95
2019-03-27T16:44:23.246Z,5.53
2019-03-27T16:46:51.476Z,6.20
2019-03-27T16:49:19.708Z,6.75
2019-03-27T16:51:47.960Z,4.60
2019-03-27T16:54:16.188Z,4.22
2019-03-27T16:56:44.426Z,5.12
2019-03-27T16:59:12.696Z,4.00
2019-03-27T17:01:40.922Z,4.00
2019-03-27T17:04:09.160Z,4.17
2019-03-27T17:06:37.382Z,7.62
2019-03-27T17:09:07.370Z,5.15
2019-03-27T17:11:35.616Z,5.60
2019-03-27T17:14:03.868Z,5.78
2019-03-27T17:16:32.183Z,8.70
2019-03-27T17:19:00.432Z,7.25
2019-03-27T17:21:28.684Z,6.20
2019-03-27T17:23:56.914Z,6.05
2019-03-27T17:26:25.164Z,10.15
2019-03-27T17:28:53.399Z,5.55
2019-03-27T17:31:21.660Z,8.85
2019-03-27T17:33:49.870Z,6.87
2019-03-27T17:36:18.096Z,11.45
2019-03-27T17:38:46.322Z,6.28
2019-03-27T17:41:14.604Z,3.62
2019-03-27T17:43:42.845Z,5.08
2019-03-27T17:46:11.083Z,5.50
2019-03-27T17:48:39.337Z,8.18
2019-03-27T17:51:07.560Z,6.60
2019-03-27T17:53:35.818Z,7.72
2019-03-27T17:56:04.044Z,5.60
2019-03-27T17:58:32.311Z,4.20
2019-03-27T18:01:02.191Z,4.85
2019-03-27T18:03:30.437Z,4.95
2019-03-27T18:05:58.776Z,5.03
2019-03-27T18:08:46.446Z,3.50
2019-03-27T18:11:14.722Z,6.70
2019-03-27T18:13:43.053Z,8.98
2019-03-27T18:16:11.277Z,7.70
2019-03-27T18:18:39.534Z,5.90
2019-03-27T18:21:07.768Z,8.55
2019-03-27T18:23:45.895Z,7.42
2019-03-27T18:26:05.986Z,7.25
2019-03-27T18:28:34.216Z,14.13
2019-03-27T18:31:02.444Z,9.73
2019-03-27T18:33:33.747Z,7.92
2019-03-27T18:36:00.626Z,8.43
2019-03-27T18:38:29.742Z,13.40
2019-03-27T18:41:10.393Z,12.50
2019-03-27T18:43:38.635Z,10.45
2019-03-27T18:46:06.861Z,10.53
2019-03-27T18:48:35.108Z,10.40
2019-03-27T18:51:03.342Z,11.12
2019-03-27T18:53:31.614Z,13.28
2019-03-27T18:55:59.844Z,12.23
2019-03-27T18:58:28.077Z,7.95
2019-03-27T19:00:56.321Z,13.32
2019-03-27T19:03:24.732Z,6.92
2019-03-27T19:05:52.993Z,13.10
2019-03-27T19:08:21.241Z,9.25
2019-03-27T19:10:49.478Z,6.58
2019-03-27T19:13:17.695Z,12.80
2019-03-27T19:15:45.925Z,12.07
2019-03-27T19:18:14.167Z,14.35
2019-03-27T19:20:42.392Z,22.48
2019-03-27T19:23:10.624Z,28.23
2019-03-27T19:25:38.879Z,28.40
2019-03-27T19:28:07.133Z,20.60
2019-03-27T19:30:35.356Z,14.87
2019-03-27T19:33:03.609Z,40.05
2019-03-27T19:35:31.850Z,36.50
2019-03-27T19:38:00.102Z,28.12
2019-03-27T19:40:28.350Z,34.40
2019-03-27T19:42:56.607Z,32.50
2019-03-27T19:45:24.927Z,35.03
2019-03-27T19:47:53.162Z,21.97
2019-03-27T19:50:21.390Z,12.63
2019-03-27T19:52:49.653Z,14.47
2019-03-27T19:55:17.873Z,9.40
2019-03-27T19:57:46.102Z,8.25
2019-03-27T20:00:14.431Z,8.48
2019-03-27T20:02:42.648Z,4.35
2019-03-27T20:05:10.898Z,10.72
2019-03-27T20:07:39.190Z,6.87
2019-03-27T20:10:07.455Z,5.95
2019-03-27T20:12:35.945Z,5.95
2019-03-27T20:15:12.084Z,9.98
2019-03-27T20:17:38.059Z,6.50
2019-03-27T20:20:07.550Z,4.83
2019-03-27T20:22:35.783Z,11.25
2019-03-27T20:25:06.355Z,8.35
2019-03-27T20:27:34.566Z,6.37
2019-03-27T20:30:03.189Z,7.28
2019-03-27T20:32:31.416Z,6.45
2019-03-27T20:34:59.654Z,9.33
2019-03-27T20:37:27.915Z,7.47
2019-03-27T20:39:56.162Z,10.45
2019-03-27T20:42:24.379Z,10.98
2019-03-27T20:44:52.627Z,7.65
2019-03-27T20:47:20.872Z,10.90
2019-03-27T20:49:49.190Z,10.40
2019-03-27T20:52:17.412Z,8.73
2019-03-27T20:54:54.818Z,6.45
2019-03-27T20:57:15.747Z,9.98
2019-03-27T20:59:43.983Z,5.85
2019-03-27T21:02:12.219Z,9.48
2019-03-27T21:04:40.455Z,9.95
2019-03-27T21:07:08.693Z,7.72
2019-03-27T21:09:36.926Z,7.60
2019-03-27T21:12:05.432Z,8.30
2019-03-27T21:14:33.670Z,6.65
2019-03-27T21:17:01.887Z,6.85
2019-03-27T21:19:30.146Z,6.17
2019-03-27T21:21:58.397Z,7.60
2019-03-27T21:24:26.611Z,8.70
2019-03-27T21:26:54.823Z,10.63
2019-03-27T21:29:23.084Z,10.18
2019-03-27T21:31:51.309Z,9.30
2019-03-27T21:34:19.545Z,10.20
2019-03-27T21:36:47.779Z,9.15
2019-03-27T21:39:16.014Z,9.83
2019-03-27T21:41:44.268Z,10.28
2019-03-27T21:44:12.501Z,9.20
2019-03-27T21:46:40.754Z,8.40
2019-03-27T21:49:08.967Z,12.88
2019-03-27T21:51:37.212Z,9.43
2019-03-27T21:54:05.452Z,8.93
2019-03-27T21:56:33.680Z,13.98
2019-03-27T21:59:02.647Z,14.93
2019-03-27T22:01:31.011Z,14.30
2019-03-27T22:03:59.279Z,14.50
2019-03-27T22:06:27.482Z,7.53
2019-03-27T22:08:55.734Z,9.95
2019-03-27T22:11:23.977Z,10.03
2019-03-27T22:13:52.210Z,9.28
2019-03-27T22:16:20.456Z,8.25
2019-03-27T22:18:48.696Z,8.40
2019-03-27T22:21:16.932Z,6.80
2019-03-27T22:23:45.187Z,11.48
2019-03-27T22:26:13.409Z,8.60
2019-03-27T22:28:41.653Z,8.75
2019-03-27T22:31:09.876Z,7.53
2019-03-27T22:33:38.124Z,9.63
2019-03-27T22:36:06.351Z,11.38
2019-03-27T22:38:34.587Z,7.12
2019-03-27T22:41:02.796Z,9.13
2019-03-27T22:43:31.067Z,8.38
2019-03-27T22:45:59.285Z,8.80
2019-03-27T22:48:27.521Z,9.33
2019-03-27T22:50:55.882Z,8.38
2019-03-27T22:53:24.136Z,9.25
2019-03-27T22:55:52.347Z,8.68
2019-03-27T22:58:20.610Z,10.88
2019-03-27T23:00:51.665Z,10.43
2019-03-27T23:03:19.982Z,9.25
2019-03-27T23:05:48.191Z,9.73
2019-03-27T23:08:35.854Z,12.20
2019-03-27T23:11:04.108Z,11.83
2019-03-27T23:13:32.417Z,11.00
2019-03-27T23:16:00.674Z,10.98
2019-03-27T23:18:28.960Z,10.75
2019-03-27T23:20:57.185Z,9.93
2019-03-27T23:23:25.431Z,14.45
2019-03-27T23:26:03.055Z,9.68
2019-03-27T23:28:23.713Z,14.47
2019-03-27T23:30:52.096Z,20.77
2019-03-27T23:33:20.875Z,13.32
2019-03-27T23:35:49.166Z,16.27
2019-03-27T23:38:17.484Z,12.37
2019-03-27T23:40:45.893Z,14.05
2019-03-27T23:43:14.114Z,13.62
2019-03-27T23:45:42.657Z,11.53
2019-03-27T23:48:10.952Z,10.72
2019-03-27T23:50:39.192Z,10.82
2019-03-27T23:53:07.431Z,14.78
2019-03-27T23:55:36.224Z,10.43
2019-03-27T23:58:04.506Z,11.50
